地図

経路データ

SID SEASON NUMBER BASIN SUBBASIN NAME ISO_TIME NATURE LAT LON WMO_WIND WMO_PRES WMO_AGENCY TRACK_TYPE DIST2LAND LANDFALL IFLAG USA_AGENCY USA_ATCF_ID USA_LAT USA_LON USA_RECORD USA_STATUS USA_WIND USA_PRES USA_SSHS USA_R34_NE USA_R34_SE USA_R34_SW USA_R34_NW USA_R50_NE USA_R50_SE USA_R50_SW USA_R50_NW USA_R64_NE USA_R64_SE USA_R64_SW USA_R64_NW USA_POCI USA_ROCI USA_RMW USA_EYE TOKYO_LAT TOKYO_LON TOKYO_GRADE TOKYO_WIND TOKYO_PRES TOKYO_R50_DIR TOKYO_R50_LONG TOKYO_R50_SHORT TOKYO_R30_DIR TOKYO_R30_LONG TOKYO_R30_SHORT TOKYO_LAND CMA_LAT CMA_LON CMA_CAT CMA_WIND CMA_PRES HKO_LAT HKO_LON HKO_CAT HKO_WIND HKO_PRES NEWDELHI_LAT NEWDELHI_LON NEWDELHI_GRADE NEWDELHI_WIND NEWDELHI_PRES NEWDELHI_CI NEWDELHI_DP NEWDELHI_POCI REUNION_LAT REUNION_LON REUNION_TYPE REUNION_WIND REUNION_PRES REUNION_TNUM REUNION_CI REUNION_RMW REUNION_R34_NE REUNION_R34_SE REUNION_R34_SW REUNION_R34_NW REUNION_R50_NE REUNION_R50_SE REUNION_R50_SW REUNION_R50_NW REUNION_R64_NE REUNION_R64_SE REUNION_R64_SW REUNION_R64_NW BOM_LAT BOM_LON BOM_TYPE BOM_WIND BOM_PRES BOM_TNUM BOM_CI BOM_RMW BOM_R34_NE BOM_R34_SE BOM_R34_SW BOM_R34_NW BOM_R50_NE BOM_R50_SE BOM_R50_SW BOM_R50_NW BOM_R64_NE BOM_R64_SE BOM_R64_SW BOM_R64_NW BOM_ROCI BOM_POCI BOM_EYE BOM_POS_METHOD BOM_PRES_METHOD NADI_LAT NADI_LON NADI_CAT NADI_WIND NADI_PRES WELLINGTON_LAT WELLINGTON_LON WELLINGTON_WIND WELLINGTON_PRES DS824_LAT DS824_LON DS824_STAGE DS824_WIND DS824_PRES TD9636_LAT TD9636_LON TD9636_STAGE TD9636_WIND TD9636_PRES TD9635_LAT TD9635_LON TD9635_WIND TD9635_PRES TD9635_ROCI NEUMANN_LAT NEUMANN_LON NEUMANN_CLASS NEUMANN_WIND NEUMANN_PRES MLC_LAT MLC_LON MLC_CLASS MLC_WIND MLC_PRES USA_GUST BOM_GUST BOM_GUST_PER REUNION_GUST REUNION_GUST_PER USA_SEAHGT USA_SEARAD_NE USA_SEARAD_SE USA_SEARAD_SW USA_SEARAD_NW STORM_SPEED STORM_DIR
1914202N17146 1914 21 WP MM NOT_NAMED 1914-07-21 10:00:00 NR 17.0000 145.800 main 2083 2063 __________O___ -1 17.0000 145.800 7 14 266
1914202N17146 1914 21 WP MM NOT_NAMED 1914-07-21 12:00:00 NR 16.9649 145.308 main 2063 2042 __________P___ -1 16.9649 145.308 7 14 266
1914202N17146 1914 21 WP MM NOT_NAMED 1914-07-21 15:00:00 NR 16.9118 144.568 main 2042 2009 __________P___ -1 16.9118 144.568 7 14 266
1914202N17146 1914 21 WP MM NOT_NAMED 1914-07-21 18:00:00 NR 16.8606 143.819 main 2009 1963 __________P___ -1 16.8606 143.819 7 14 266
1914202N17146 1914 21 WP MM NOT_NAMED 1914-07-21 21:00:00 NR 16.8141 143.058 main 1963 1932 __________P___ -1 16.8141 143.058 7 15 266
1914202N17146 1914 21 WP MM NOT_NAMED 1914-07-21 22:00:00 NR 16.8000 142.800 main 1932 1880 __________O___ -1 16.8000 142.800 3 15 267
1914202N17146 1914 21 WP MM NOT_NAMED 1914-07-22 00:00:00 NR 16.7745 142.278 main 1880 1794 __________P___ -1 16.7745 142.278 3 15 267
1914202N17146 1914 21 WP MM NOT_NAMED 1914-07-22 03:00:00 NR 16.7429 141.483 main 1794 1712 __________P___ -1 16.7429 141.483 3 15 268
1914202N17146 1914 21 WP MM NOT_NAMED 1914-07-22 06:00:00 NR 16.7192 140.678 main 1712 1630 __________P___ -1 16.7192 140.678 3 15 269
1914202N17146 1914 21 WP MM NOT_NAMED 1914-07-22 09:00:00 NR 16.7034 139.869 main 1630 1599 __________P___ -1 16.7034 139.869 3 15 269
1914202N17146 1914 21 WP MM NOT_NAMED 1914-07-22 10:00:00 NR 16.7000 139.600 main 1599 1548 __________O___ -1 16.7000 139.600 4 16 268
1914202N17146 1914 21 WP MM NOT_NAMED 1914-07-22 12:00:00 NR 16.6807 139.059 main 1548 1457 __________P___ -1 16.6807 139.059 4 16 268
1914202N17146 1914 21 WP MM NOT_NAMED 1914-07-22 15:00:00 NR 16.6582 138.246 main 1457 1376 __________P___ -1 16.6582 138.246 4 16 269
1914202N17146 1914 21 WP MM NOT_NAMED 1914-07-22 18:00:00 NR 16.6545 137.442 main 1376 1307 __________P___ -1 16.6545 137.442 4 15 271
1914202N17146 1914 21 WP MM NOT_NAMED 1914-07-22 21:00:00 NR 16.6818 136.656 main 1307 1277 __________P___ -1 16.6818 136.656 4 15 273
1914202N17146 1914 21 WP MM NOT_NAMED 1914-07-22 22:00:00 NR 16.7000 136.400 main 1277 1228 __________O___ -1 16.7000 136.400 4 15 274
1914202N17146 1914 21 WP MM NOT_NAMED 1914-07-23 00:00:00 NR 16.7333 135.886 main 1228 1154 __________P___ -1 16.7333 135.886 4 15 275
1914202N17146 1914 21 WP MM NOT_NAMED 1914-07-23 03:00:00 NR 16.8148 135.134 main 1154 1092 __________P___ -1 16.8148 135.134 4 14 278
1914202N17146 1914 21 WP MM NOT_NAMED 1914-07-23 06:00:00 NR 16.9424 134.410 main 1092 1038 __________P___ -1 16.9424 134.410 4 14 283
1914202N17146 1914 21 WP MM NOT_NAMED 1914-07-23 09:00:00 NR 17.1252 133.721 main 1038 1026 __________P___ -1 17.1252 133.721 4 14 287
1914202N17146 1914 21 WP MM NOT_NAMED 1914-07-23 10:00:00 NR 17.2000 133.500 main 1026 996 __________O___ -1 17.2000 133.500 4 13 289
1914202N17146 1914 21 WP MM NOT_NAMED 1914-07-23 12:00:00 NR 17.3391 133.053 main 996 951 __________P___ -1 17.3391 133.053 4 13 291
1914202N17146 1914 21 WP MM NOT_NAMED 1914-07-23 15:00:00 NR 17.5980 132.413 main 951 909 __________P___ -1 17.5980 132.413 4 13 297
1914202N17146 1914 21 WP MM NOT_NAMED 1914-07-23 18:00:00 NR 17.9280 131.817 main 909 886 __________P___ -1 17.9280 131.817 4 13 304
1914202N17146 1914 21 WP MM NOT_NAMED 1914-07-23 21:00:00 NR 18.3415 131.270 main 886 881 __________P___ -1 18.3415 131.270 4 13 310
1914202N17146 1914 21 WP MM NOT_NAMED 1914-07-23 22:00:00 NR 18.5000 131.100 main 881 868 __________O___ -1 18.5000 131.100 4 14 315
1914202N17146 1914 21 WP MM NOT_NAMED 1914-07-24 00:00:00 NR 18.8269 130.756 main 875 847 __________P___ -1 18.8269 130.756 4 14 319
1914202N17146 1914 21 WP MM NOT_NAMED 1914-07-24 03:00:00 NR 19.3928 130.283 main 848 815 __________P___ -1 19.3928 130.283 4 15 325
1914202N17146 1914 21 WP MM NOT_NAMED 1914-07-24 06:00:00 NR 20.0381 129.865 main 817 796 __________P___ -1 20.0381 129.865 4 15 332
1914202N17146 1914 21 WP MM NOT_NAMED 1914-07-24 09:00:00 NR 20.7501 129.506 main 800 794 __________P___ -1 20.7501 129.506 4 16 336
1914202N17146 1914 21 WP MM NOT_NAMED 1914-07-24 10:00:00 NR 21.0000 129.400 main 797 792 __________O___ -1 21.0000 129.400 4 17 340
1914202N17146 1914 21 WP MM NOT_NAMED 1914-07-24 12:00:00 NR 21.5589 129.191 main 804 751 __________P___ -1 21.5589 129.191 4 18 343
1914202N17146 1914 21 WP MM NOT_NAMED 1914-07-24 15:00:00 NR 22.4495 128.928 main 751 703 __________P___ -1 22.4495 128.928 4 18 346
1914202N17146 1914 21 WP MM NOT_NAMED 1914-07-24 18:00:00 NR 23.3220 128.717 main 703 664 __________P___ -1 23.3220 128.717 4 17 348
1914202N17146 1914 21 WP MM NOT_NAMED 1914-07-24 21:00:00 NR 24.0855 128.549 main 664 661 __________P___ -1 24.0855 128.549 4 15 349
1914202N17146 1914 21 WP MM NOT_NAMED 1914-07-24 22:00:00 NR 24.3000 128.500 main 661 647 __________O___ -1 24.3000 128.500 4 11 347
1914202N17146 1914 21 WP MM NOT_NAMED 1914-07-25 00:00:00 NR 24.6248 128.416 main 647 634 __________P___ -1 24.6248 128.416 4 8 347
1914202N17146 1914 21 WP MM NOT_NAMED 1914-07-25 03:00:00 NR 24.9798 128.324 main 634 624 __________P___ -1 24.9798 128.324 4 6 346
1914202N17146 1914 21 WP MM NOT_NAMED 1914-07-25 06:00:00 NR 25.2293 128.244 main 624 614 __________P___ -1 25.2293 128.244 4 5 340
1914202N17146 1914 21 WP MM NOT_NAMED 1914-07-25 09:00:00 NR 25.4324 128.143 main 614 614 __________P___ -1 25.4324 128.143 4 5 334
1914202N17146 1914 21 WP MM NOT_NAMED 1914-07-25 10:00:00 NR 25.5000 128.100 main 615 606 __________O___ -1 25.5000 128.100 4 6 330
1914202N17146 1914 21 WP MM NOT_NAMED 1914-07-25 12:00:00 NR 25.6912 127.981 main 607 590 __________P___ -1 25.6912 127.981 4 7 327
1914202N17146 1914 21 WP MM NOT_NAMED 1914-07-25 15:00:00 NR 25.9657 127.772 main 592 567 __________P___ -1 25.9657 127.772 4 7 323
1914202N17146 1914 21 WP MM NOT_NAMED 1914-07-25 18:00:00 NR 26.2171 127.535 main 567 553 __________P___ -1 26.2171 127.535 4 6 317
1914202N17146 1914 21 WP MM NOT_NAMED 1914-07-25 21:00:00 NR 26.4359 127.285 main 553 546 __________P___ -1 26.4359 127.285 4 6 313
1914202N17146 1914 21 WP MM NOT_NAMED 1914-07-25 22:00:00 NR 26.5000 127.200 main 546 531 __________O___ -1 26.5000 127.200 4 6 308
1914202N17146 1914 21 WP MM NOT_NAMED 1914-07-26 00:00:00 NR 26.6092 127.039 main 531 516 __________P___ -1 26.6092 127.039 4 5 303
1914202N17146 1914 21 WP MM NOT_NAMED 1914-07-26 03:00:00 NR 26.7414 126.791 main 516 497 __________P___ -1 26.7414 126.791 4 5 299
1914202N17146 1914 21 WP MM NOT_NAMED 1914-07-26 06:00:00 NR 26.8525 126.538 main 497 479 __________P___ -1 26.8525 126.538 4 5 296
1914202N17146 1914 21 WP MM NOT_NAMED 1914-07-26 09:00:00 NR 26.9611 126.284 main 483 475 __________P___ -1 26.9611 126.284 4 5 296
1914202N17146 1914 21 WP MM NOT_NAMED 1914-07-26 10:00:00 NR 27.0000 126.200 main 475 452 __________O___ -1 27.0000 126.200 4 5 299
1914202N17146 1914 21 WP MM NOT_NAMED 1914-07-26 12:00:00 NR 27.0848 126.032 main 452 430 __________P___ -1 27.0848 126.032 4 5 301
1914202N17146 1914 21 WP MM NOT_NAMED 1914-07-26 15:00:00 NR 27.2272 125.782 main 430 395 __________P___ -1 27.2272 125.782 4 5 304
1914202N17146 1914 21 WP MM NOT_NAMED 1914-07-26 18:00:00 NR 27.3826 125.532 main 395 374 __________P___ -1 27.3826 125.532 4 5 306
1914202N17146 1914 21 WP MM NOT_NAMED 1914-07-26 21:00:00 NR 27.5452 125.283 main 374 360 __________P___ -1 27.5452 125.283 4 6 307
1914202N17146 1914 21 WP MM NOT_NAMED 1914-07-26 22:00:00 NR 27.6000 125.200 main 360 __________O___ -1 27.6000 125.200 4 6 308

デジタル台風データ・検索

IBTrACS Databaseについて

本データベースは、米国NOAAが公開する1842年以降の世界の熱帯低気圧のベストトラックデータアーカイブInternational Best Track Archive for Climate Stewardship (IBTrACS)を、ウェブで閲覧しやすい形式に変換したものです。

最終更新日:2021-10-27